createdAt,value
2023-02-02T00:04:31.733Z,98049.61
2023-02-02T00:09:33.566Z,98046.97
2023-02-02T00:14:38.538Z,98049.23
2023-02-02T00:19:40.293Z,98056.05
2023-02-02T00:24:42.038Z,98058.98
2023-02-02T00:29:43.883Z,98056.96
2023-02-02T00:34:46.856Z,98065.45
2023-02-02T00:39:48.732Z,98067.70
2023-02-02T00:45:09.030Z,98070.27
2023-02-02T00:50:13.153Z,98066.40
2023-02-02T00:55:15.741Z,98072.46
2023-02-02T01:00:20.928Z,98074.56
2023-02-02T01:05:23.393Z,98074.63
2023-02-02T01:10:25.456Z,98074.77
2023-02-02T01:15:27.391Z,98076.95
2023-02-02T01:20:29.423Z,98081.22
2023-02-02T01:25:32.550Z,98083.02
2023-02-02T01:30:34.395Z,98076.40
2023-02-02T01:35:36.131Z,98083.29
2023-02-02T01:40:54.227Z,98080.78
2023-02-02T01:45:58.819Z,98084.21
2023-02-02T01:51:04.543Z,98079.06
2023-02-02T01:56:08.151Z,98083.85
2023-02-02T02:01:10.229Z,98090.23
2023-02-02T02:06:16.908Z,98095.92
2023-02-02T02:11:20.302Z,98097.35
2023-02-02T02:16:29.326Z,98104.09
2023-02-02T02:21:58.695Z,98113.52
2023-02-02T02:27:17.809Z,98116.50
2023-02-02T02:32:46.611Z,98125.59
2023-02-02T02:37:51.506Z,98138.80
2023-02-02T02:43:00.918Z,98138.36
2023-02-02T02:48:03.400Z,98135.31
2023-02-02T02:53:09.987Z,98136.65
2023-02-02T02:58:36.132Z,98137.96
2023-02-02T03:03:45.366Z,98138.32
2023-02-02T03:08:53.638Z,98140.89
2023-02-02T03:13:56.189Z,98143.34
2023-02-02T03:18:57.957Z,98140.67
2023-02-02T03:24:00.409Z,98138.32
2023-02-02T03:29:02.524Z,98135.34
2023-02-02T03:34:04.278Z,98134.84
2023-02-02T03:39:05.952Z,98131.61
2023-02-02T03:44:07.605Z,98138.02
2023-02-02T03:49:09.362Z,98140.77
2023-02-02T03:54:11.220Z,98140.89
2023-02-02T03:59:12.881Z,98139.48
2023-02-02T04:04:14.845Z,98140.00
2023-02-02T04:09:16.590Z,98135.32
2023-02-02T04:14:18.292Z,98124.83
2023-02-02T04:19:20.306Z,98125.86
2023-02-02T04:24:22.089Z,98125.52
2023-02-02T04:29:23.841Z,98118.89
2023-02-02T04:34:25.766Z,98118.16
2023-02-02T04:39:27.483Z,98122.57
2023-02-02T04:44:29.154Z,98125.80
2023-02-02T04:49:31.052Z,98125.71
2023-02-02T04:54:33.625Z,98126.96
2023-02-02T04:59:35.301Z,98120.74
2023-02-02T05:04:37.154Z,98123.88
2023-02-02T05:09:38.907Z,98131.48
2023-02-02T05:14:40.590Z,98128.67
2023-02-02T05:19:42.530Z,98121.63
2023-02-02T05:24:44.471Z,98113.90
2023-02-02T05:29:48.064Z,98113.14
2023-02-02T05:34:49.750Z,98113.92
2023-02-02T05:39:53.638Z,98107.77
2023-02-02T05:44:55.379Z,98113.48
2023-02-02T05:49:57.125Z,98112.30
2023-02-02T05:54:58.799Z,98103.55
2023-02-02T06:00:00.504Z,98100.55
2023-02-02T06:05:02.695Z,98098.66
2023-02-02T06:10:05.431Z,98100.17
2023-02-02T06:15:07.801Z,98099.00
2023-02-02T06:20:10.043Z,98109.78
2023-02-02T06:25:11.697Z,98121.20
2023-02-02T06:30:14.035Z,98129.94
2023-02-02T06:35:16.171Z,98132.73
2023-02-02T06:40:18.155Z,98130.90
2023-02-02T06:45:19.842Z,98125.45
2023-02-02T06:50:21.667Z,98112.31
2023-02-02T06:55:23.585Z,98113.56
2023-02-02T07:00:26.719Z,98106.75
2023-02-02T07:05:30.708Z,98104.85
2023-02-02T07:11:13.314Z,98105.70
2023-02-02T07:15:57.208Z,98109.83
2023-02-02T07:21:00.585Z,98110.08
2023-02-02T07:26:05.055Z,98110.89
2023-02-02T07:31:15.689Z,98106.09
2023-02-02T07:36:19.969Z,98105.96
2023-02-02T07:41:22.374Z,98095.33
2023-02-02T07:46:26.085Z,98094.69
2023-02-02T07:51:27.956Z,98101.67
2023-02-02T07:56:29.680Z,98110.67
2023-02-02T08:01:31.527Z,98120.52
2023-02-02T08:06:38.227Z,98132.05
2023-02-02T08:11:40.411Z,98128.17
2023-02-02T08:16:42.145Z,98127.30
2023-02-02T08:21:43.875Z,98134.67
2023-02-02T08:26:45.716Z,98139.36
2023-02-02T08:31:47.460Z,98125.17
2023-02-02T08:36:49.467Z,98139.11
2023-02-02T08:41:54.419Z,98155.17
2023-02-02T08:46:56.371Z,98162.96
2023-02-02T08:51:59.171Z,98185.64
2023-02-02T08:57:00.877Z,98204.10
2023-02-02T09:02:03.203Z,98199.37
2023-02-02T09:07:05.077Z,98200.31
2023-02-02T09:12:07.060Z,98205.85
2023-02-02T09:17:08.729Z,98209.55
2023-02-02T09:22:10.595Z,98217.23
2023-02-02T09:27:12.252Z,98224.98
2023-02-02T09:32:14.460Z,98224.05
2023-02-02T09:37:16.289Z,98225.86
2023-02-02T09:42:31.535Z,98235.80
2023-02-02T09:47:56.221Z,98239.88
2023-02-02T09:53:20.952Z,98242.58
2023-02-02T09:58:31.213Z,98241.30
2023-02-02T10:04:01.403Z,98234.69
2023-02-02T10:09:53.075Z,98249.78
2023-02-02T10:15:24.471Z,98248.56
2023-02-02T10:20:47.823Z,98255.64
2023-02-02T10:25:57.337Z,98243.34
2023-02-02T10:31:01.979Z,98250.73
2023-02-02T10:36:15.901Z,98242.36
2023-02-02T10:41:56.401Z,98255.10
2023-02-02T10:47:01.230Z,98273.29
2023-02-02T10:52:15.508Z,98278.56
2023-02-02T10:57:25.567Z,98292.88
2023-02-02T11:02:27.358Z,98287.24
2023-02-02T11:07:29.051Z,98290.98
2023-02-02T11:12:34.194Z,98294.89
2023-02-02T11:17:36.149Z,98298.21
2023-02-02T11:22:38.715Z,98297.15
2023-02-02T11:27:42.861Z,98299.06
2023-02-02T11:32:47.859Z,98308.44
2023-02-02T11:38:07.139Z,98325.80
2023-02-02T11:43:20.283Z,98326.22
2023-02-02T11:48:27.175Z,98333.11
2023-02-02T11:53:30.861Z,98333.15
2023-02-02T11:58:55.394Z,98343.14
2023-02-02T12:03:59.663Z,98360.13
2023-02-02T12:09:09.851Z,98367.16
2023-02-02T12:14:26.810Z,98376.64
2023-02-02T12:19:40.806Z,98373.77
2023-02-02T12:24:49.916Z,98371.84
2023-02-02T12:30:12.600Z,98378.00
2023-02-02T12:35:56.813Z,98386.91
2023-02-02T12:41:29.587Z,98396.23
2023-02-02T12:46:59.738Z,98393.68
2023-02-02T12:52:09.458Z,98394.48
2023-02-02T12:57:20.023Z,98395.51
2023-02-02T13:02:38.924Z,98402.13
2023-02-02T13:07:47.665Z,98384.33
2023-02-02T13:12:58.956Z,98421.73
2023-02-02T13:18:04.927Z,98428.96
2023-02-02T13:23:14.320Z,98425.29
2023-02-02T13:28:30.537Z,98430.78
2023-02-02T13:33:35.430Z,98436.08
2023-02-02T13:38:42.189Z,98443.52
2023-02-02T13:43:47.084Z,98448.30
2023-02-02T13:49:10.942Z,98459.05
2023-02-02T13:54:25.200Z,98468.91
2023-02-02T13:59:48.985Z,98480.35
2023-02-02T14:05:01.590Z,98479.06
2023-02-02T14:10:04.469Z,98490.50
2023-02-02T14:15:07.072Z,98499.23
2023-02-02T14:20:40.973Z,98502.77
2023-02-02T14:25:42.596Z,98510.63
2023-02-02T14:30:44.275Z,98521.71
2023-02-02T14:35:45.876Z,98536.05
2023-02-02T14:41:00.244Z,98533.19
2023-02-02T14:46:14.176Z,98550.84
2023-02-02T14:51:26.742Z,98566.42
2023-02-02T14:56:56.008Z,98568.85
2023-02-02T15:02:00.783Z,98582.45
2023-02-02T15:07:24.697Z,98595.19
2023-02-02T15:12:37.296Z,98607.74
2023-02-02T15:17:38.882Z,98620.45
2023-02-02T15:22:47.752Z,98627.27
2023-02-02T15:27:58.240Z,98635.80
2023-02-02T15:33:07.542Z,98636.48
2023-02-02T15:38:17.339Z,98644.33
2023-02-02T15:43:19.961Z,98664.77
2023-02-02T15:48:30.073Z,98667.58
2023-02-02T15:53:40.933Z,98691.14
2023-02-02T15:58:47.155Z,98707.91
2023-02-02T16:04:00.335Z,98716.23
2023-02-02T16:09:04.108Z,98726.27
2023-02-02T16:14:14.154Z,98738.42
2023-02-02T16:19:21.325Z,98756.27
2023-02-02T16:24:28.363Z,98771.35
2023-02-02T16:29:30.702Z,98768.14
2023-02-02T16:34:42.049Z,98780.49
2023-02-02T16:39:44.127Z,98793.95
2023-02-02T16:44:45.825Z,98799.46
2023-02-02T16:49:47.763Z,98818.63
2023-02-02T16:54:55.338Z,98842.48
2023-02-02T17:00:01.182Z,98862.17
2023-02-02T17:05:16.577Z,98869.22
2023-02-02T17:10:18.199Z,98872.44
2023-02-02T17:15:20.121Z,98874.15
2023-02-02T17:20:22.715Z,98877.91
2023-02-02T17:25:29.802Z,98898.05
2023-02-02T17:30:31.769Z,98901.68
2023-02-02T17:35:51.647Z,98903.86
2023-02-02T17:40:59.547Z,98893.17
2023-02-02T17:46:04.058Z,98915.89
2023-02-02T17:51:07.349Z,98935.16
2023-02-02T17:56:09.293Z,98948.27
2023-02-02T18:01:12.227Z,98959.65
2023-02-02T18:06:13.999Z,98970.30
2023-02-02T18:11:16.646Z,98982.79
2023-02-02T18:16:19.828Z,98998.48
2023-02-02T18:21:22.156Z,99001.98
2023-02-02T18:26:24.444Z,99008.67
2023-02-02T18:31:27.338Z,99020.83
2023-02-02T18:36:29.559Z,99025.20
2023-02-02T18:41:31.801Z,99035.80
2023-02-02T18:46:34.273Z,99045.01
2023-02-02T18:51:36.689Z,99053.04
2023-02-02T18:56:38.819Z,99067.24
2023-02-02T19:01:40.778Z,99081.56
2023-02-02T19:07:01.245Z,99093.08
2023-02-02T19:12:09.726Z,99117.65
2023-02-02T19:17:14.756Z,99136.59
2023-02-02T19:22:22.482Z,99148.79
2023-02-02T19:27:28.759Z,99159.63
2023-02-02T19:32:33.911Z,99169.58
2023-02-02T19:37:43.572Z,99171.38
2023-02-02T19:42:47.309Z,99174.11
2023-02-02T19:47:51.407Z,99181.67
2023-02-02T19:52:55.155Z,99189.56
2023-02-02T19:58:11.349Z,99204.85
2023-02-02T20:03:42.865Z,99216.34
2023-02-02T20:08:44.925Z,99223.49
2023-02-02T20:13:48.523Z,99238.12
2023-02-02T20:18:55.401Z,99242.14
2023-02-02T20:23:57.832Z,99250.55
2023-02-02T20:29:03.715Z,99261.55
2023-02-02T20:34:28.521Z,99267.23
2023-02-02T20:39:41.125Z,99279.59
2023-02-02T20:44:43.355Z,99285.38
2023-02-02T20:49:45.999Z,99290.61
2023-02-02T20:54:48.338Z,99298.96
2023-02-02T20:59:57.579Z,99306.46
2023-02-02T21:05:01.541Z,99314.29
2023-02-02T21:10:03.407Z,99293.05
2023-02-02T21:15:05.903Z,99321.05
2023-02-02T21:20:08.581Z,99335.16
2023-02-02T21:25:11.486Z,99336.21
2023-02-02T21:30:14.232Z,99343.58
2023-02-02T21:35:16.165Z,99353.42
2023-02-02T21:40:30.352Z,99353.80
2023-02-02T21:45:37.773Z,99360.77
2023-02-02T21:50:41.574Z,99374.98
2023-02-02T21:55:59.870Z,99371.58
2023-02-02T22:01:17.020Z,99369.95
2023-02-02T22:06:22.001Z,99381.86
2023-02-02T22:11:31.170Z,99396.85
2023-02-02T22:16:40.358Z,99408.34
2023-02-02T22:21:42.092Z,99402.97
2023-02-02T22:26:44.093Z,99395.25
2023-02-02T22:31:48.160Z,99399.85
2023-02-02T22:36:50.362Z,99403.48
2023-02-02T22:41:52.151Z,99405.91
2023-02-02T22:46:53.909Z,99410.98
2023-02-02T22:51:55.674Z,99415.20
2023-02-02T22:56:57.553Z,99422.39
2023-02-02T23:01:59.252Z,99429.27
2023-02-02T23:07:00.872Z,99435.17
2023-02-02T23:12:02.582Z,99436.87
2023-02-02T23:17:04.360Z,99443.98
2023-02-02T23:22:06.066Z,99454.80
2023-02-02T23:27:08.237Z,99457.63
2023-02-02T23:32:09.955Z,99460.80
2023-02-02T23:37:11.729Z,99463.90
2023-02-02T23:42:13.871Z,99471.70
2023-02-02T23:47:15.909Z,99481.02
2023-02-02T23:52:21.873Z,99487.38
2023-02-02T23:57:24.393Z,99501.48
